sensor_id;sensor_type;location;lat;lon;timestamp;P1;durP1;ratioP1;P2;durP2;ratioP2
29006;SDS011;16104;48.642;9.008;2023-12-20T00:03:11;0.93;;;0.90;;
29006;SDS011;16104;48.642;9.008;2023-12-20T00:08:07;1.80;;;1.27;;
29006;SDS011;16104;48.642;9.008;2023-12-20T00:13:02;1.30;;;1.10;;
29006;SDS011;16104;48.642;9.008;2023-12-20T00:17:58;0.88;;;0.73;;
29006;SDS011;16104;48.642;9.008;2023-12-20T00:22:57;4.25;;;0.90;;
29006;SDS011;16104;48.642;9.008;2023-12-20T00:27:53;1.73;;;1.00;;
29006;SDS011;16104;48.642;9.008;2023-12-20T00:32:48;1.95;;;1.25;;
29006;SDS011;16104;48.642;9.008;2023-12-20T00:37:44;1.35;;;0.90;;
29006;SDS011;16104;48.642;9.008;2023-12-20T00:42:39;0.77;;;0.60;;
29006;SDS011;16104;48.642;9.008;2023-12-20T00:47:35;0.80;;;0.80;;
29006;SDS011;16104;48.642;9.008;2023-12-20T00:52:30;0.77;;;0.77;;
29006;SDS011;16104;48.642;9.008;2023-12-20T00:57:26;0.65;;;0.65;;
29006;SDS011;16104;48.642;9.008;2023-12-20T05:01:33;0.22;;;0.10;;
29006;SDS011;16104;48.642;9.008;2023-12-20T05:06:29;0.10;;;0.10;;
29006;SDS011;16104;48.642;9.008;2023-12-20T05:11:24;0.00;;;0.00;;
29006;SDS011;16104;48.642;9.008;2023-12-20T05:16:20;0.20;;;0.10;;
29006;SDS011;16104;48.642;9.008;2023-12-20T05:21:15;1.35;;;0.20;;
29006;SDS011;16104;48.642;9.008;2023-12-20T05:26:11;0.05;;;0.00;;
29006;SDS011;16104;48.642;9.008;2023-12-20T05:31:06;1.27;;;0.17;;
29006;SDS011;16104;48.642;9.008;2023-12-20T05:36:02;0.32;;;0.32;;
29006;SDS011;16104;48.642;9.008;2023-12-20T05:40:58;2.72;;;0.50;;
29006;SDS011;16104;48.642;9.008;2023-12-20T05:45:53;2.30;;;0.30;;
29006;SDS011;16104;48.642;9.008;2023-12-20T05:50:49;0.90;;;0.82;;
29006;SDS011;16104;48.642;9.008;2023-12-20T05:55:44;1.25;;;0.60;;
29006;SDS011;16104;48.642;9.008;2023-12-20T06:00:40;1.65;;;0.60;;
29006;SDS011;16104;48.642;9.008;2023-12-20T06:05:35;2.53;;;0.73;;
29006;SDS011;16104;48.642;9.008;2023-12-20T06:10:31;1.15;;;0.40;;
29006;SDS011;16104;48.642;9.008;2023-12-20T06:15:26;8.82;;;0.88;;
29006;SDS011;16104;48.642;9.008;2023-12-20T06:20:22;2.08;;;0.50;;
29006;SDS011;16104;48.642;9.008;2023-12-20T06:25:17;0.45;;;0.40;;
29006;SDS011;16104;48.642;9.008;2023-12-20T06:30:13;1.95;;;0.40;;
29006;SDS011;16104;48.642;9.008;2023-12-20T06:35:08;0.75;;;0.20;;
29006;SDS011;16104;48.642;9.008;2023-12-20T06:40:04;1.30;;;0.35;;
29006;SDS011;16104;48.642;9.008;2023-12-20T06:45:00;1.38;;;0.80;;
29006;SDS011;16104;48.642;9.008;2023-12-20T06:49:56;2.67;;;0.40;;
29006;SDS011;16104;48.642;9.008;2023-12-20T06:54:51;1.05;;;0.47;;
29006;SDS011;16104;48.642;9.008;2023-12-20T06:59:47;0.98;;;0.50;;
29006;SDS011;16104;48.642;9.008;2023-12-20T07:04:42;1.58;;;0.65;;
29006;SDS011;16104;48.642;9.008;2023-12-20T07:09:38;0.80;;;0.50;;
29006;SDS011;16104;48.642;9.008;2023-12-20T07:14:34;1.08;;;0.70;;
29006;SDS011;16104;48.642;9.008;2023-12-20T07:19:29;1.15;;;0.70;;
29006;SDS011;16104;48.642;9.008;2023-12-20T07:24:25;1.98;;;0.80;;
29006;SDS011;16104;48.642;9.008;2023-12-20T07:29:22;1.10;;;0.40;;
29006;SDS011;16104;48.642;9.008;2023-12-20T07:34:17;1.40;;;0.43;;
29006;SDS011;16104;48.642;9.008;2023-12-20T07:39:13;2.17;;;0.50;;
29006;SDS011;16104;48.642;9.008;2023-12-20T07:44:09;1.48;;;0.70;;
29006;SDS011;16104;48.642;9.008;2023-12-20T07:49:05;3.10;;;0.75;;
29006;SDS011;16104;48.642;9.008;2023-12-20T07:54:00;1.38;;;0.90;;
29006;SDS011;16104;48.642;9.008;2023-12-20T07:58:56;2.25;;;0.80;;
29006;SDS011;16104;48.642;9.008;2023-12-20T08:03:51;1.42;;;0.95;;
29006;SDS011;16104;48.642;9.008;2023-12-20T08:08:47;2.60;;;1.20;;
29006;SDS011;16104;48.642;9.008;2023-12-20T08:13:42;3.20;;;1.48;;
29006;SDS011;16104;48.642;9.008;2023-12-20T08:18:38;1.38;;;0.98;;
29006;SDS011;16104;48.642;9.008;2023-12-20T08:23:34;3.05;;;1.13;;
29006;SDS011;16104;48.642;9.008;2023-12-20T08:28:30;2.30;;;1.10;;
29006;SDS011;16104;48.642;9.008;2023-12-20T08:33:26;2.60;;;1.23;;
29006;SDS011;16104;48.642;9.008;2023-12-20T08:38:22;1.52;;;0.90;;
29006;SDS011;16104;48.642;9.008;2023-12-20T08:43:17;6.63;;;1.40;;
29006;SDS011;16104;48.642;9.008;2023-12-20T08:48:13;2.67;;;1.48;;
29006;SDS011;16104;48.642;9.008;2023-12-20T08:53:09;4.10;;;2.15;;
29006;SDS011;16104;48.642;9.008;2023-12-20T08:58:04;3.83;;;1.60;;
29006;SDS011;16104;48.642;9.008;2023-12-20T09:03:02;2.10;;;1.33;;
29006;SDS011;16104;48.642;9.008;2023-12-20T09:07:57;4.43;;;1.20;;
29006;SDS011;16104;48.642;9.008;2023-12-20T09:12:53;4.25;;;1.38;;
29006;SDS011;16104;48.642;9.008;2023-12-20T09:17:52;3.08;;;1.48;;
29006;SDS011;16104;48.642;9.008;2023-12-20T09:22:48;4.68;;;1.30;;
29006;SDS011;16104;48.642;9.008;2023-12-20T09:27:44;3.10;;;1.13;;
29006;SDS011;16104;48.642;9.008;2023-12-20T09:32:39;3.42;;;1.40;;
29006;SDS011;16104;48.642;9.008;2023-12-20T09:37:35;2.72;;;1.23;;
29006;SDS011;16104;48.642;9.008;2023-12-20T09:42:38;3.22;;;1.27;;
29006;SDS011;16104;48.642;9.008;2023-12-20T09:47:38;3.80;;;1.50;;
29006;SDS011;16104;48.642;9.008;2023-12-20T09:52:34;6.28;;;1.75;;
29006;SDS011;16104;48.642;9.008;2023-12-20T09:57:32;2.75;;;1.20;;
29006;SDS011;16104;48.642;9.008;2023-12-20T10:02:27;4.45;;;1.25;;
29006;SDS011;16104;48.642;9.008;2023-12-20T10:07:24;6.38;;;1.60;;
29006;SDS011;16104;48.642;9.008;2023-12-20T10:12:20;3.70;;;1.20;;
29006;SDS011;16104;48.642;9.008;2023-12-20T10:17:15;4.13;;;1.30;;
29006;SDS011;16104;48.642;9.008;2023-12-20T10:22:11;4.75;;;1.35;;
29006;SDS011;16104;48.642;9.008;2023-12-20T10:27:07;3.83;;;1.40;;
29006;SDS011;16104;48.642;9.008;2023-12-20T10:37:28;3.28;;;1.35;;
29006;SDS011;16104;48.642;9.008;2023-12-20T10:42:27;2.47;;;1.30;;
29006;SDS011;16104;48.642;9.008;2023-12-20T10:47:24;2.75;;;1.00;;
29006;SDS011;16104;48.642;9.008;2023-12-20T10:52:22;4.20;;;1.30;;
29006;SDS011;16104;48.642;9.008;2023-12-20T10:57:19;4.85;;;1.30;;
29006;SDS011;16104;48.642;9.008;2023-12-20T11:02:16;2.22;;;1.08;;
29006;SDS011;16104;48.642;9.008;2023-12-20T11:17:11;2.38;;;1.23;;
29006;SDS011;16104;48.642;9.008;2023-12-20T11:22:09;2.67;;;1.17;;
29006;SDS011;16104;48.642;9.008;2023-12-20T11:27:04;2.50;;;0.95;;
29006;SDS011;16104;48.642;9.008;2023-12-20T11:32:03;2.97;;;1.23;;
29006;SDS011;16104;48.642;9.008;2023-12-20T11:37:30;5.43;;;1.48;;
29006;SDS011;16104;48.642;9.008;2023-12-20T11:42:26;2.05;;;0.93;;
29006;SDS011;16104;48.642;9.008;2023-12-20T11:47:22;4.18;;;1.20;;
29006;SDS011;16104;48.642;9.008;2023-12-20T11:52:18;6.72;;;1.35;;
29006;SDS011;16104;48.642;9.008;2023-12-20T11:57:13;4.40;;;1.35;;
29006;SDS011;16104;48.642;9.008;2023-12-20T12:02:11;5.20;;;1.30;;
29006;SDS011;16104;48.642;9.008;2023-12-20T12:07:07;2.75;;;1.38;;
29006;SDS011;16104;48.642;9.008;2023-12-20T12:12:02;5.28;;;1.38;;
29006;SDS011;16104;48.642;9.008;2023-12-20T12:16:58;4.55;;;1.30;;
29006;SDS011;16104;48.642;9.008;2023-12-20T12:22:15;3.60;;;1.50;;
29006;SDS011;16104;48.642;9.008;2023-12-20T12:27:11;4.90;;;1.30;;
29006;SDS011;16104;48.642;9.008;2023-12-20T12:32:08;5.15;;;1.38;;
29006;SDS011;16104;48.642;9.008;2023-12-20T12:37:04;8.55;;;1.38;;
29006;SDS011;16104;48.642;9.008;2023-12-20T12:42:00;6.32;;;1.55;;
29006;SDS011;16104;48.642;9.008;2023-12-20T12:46:55;8.75;;;1.65;;
29006;SDS011;16104;48.642;9.008;2023-12-20T12:51:51;5.75;;;1.30;;
29006;SDS011;16104;48.642;9.008;2023-12-20T12:56:47;5.75;;;1.15;;
29006;SDS011;16104;48.642;9.008;2023-12-20T13:01:43;8.40;;;1.33;;
29006;SDS011;16104;48.642;9.008;2023-12-20T13:06:38;5.70;;;1.10;;
29006;SDS011;16104;48.642;9.008;2023-12-20T13:11:35;6.43;;;1.45;;
29006;SDS011;16104;48.642;9.008;2023-12-20T13:16:31;6.32;;;1.42;;
29006;SDS011;16104;48.642;9.008;2023-12-20T13:21:26;3.80;;;1.52;;
29006;SDS011;16104;48.642;9.008;2023-12-20T13:26:22;3.58;;;1.33;;
29006;SDS011;16104;48.642;9.008;2023-12-20T13:31:19;7.43;;;1.50;;
29006;SDS011;16104;48.642;9.008;2023-12-20T13:36:15;3.22;;;1.40;;
29006;SDS011;16104;48.642;9.008;2023-12-20T13:41:10;7.55;;;1.23;;
29006;SDS011;16104;48.642;9.008;2023-12-20T13:46:06;3.83;;;1.33;;
29006;SDS011;16104;48.642;9.008;2023-12-20T13:51:02;5.97;;;1.35;;
29006;SDS011;16104;48.642;9.008;2023-12-20T13:55:58;6.30;;;1.45;;
29006;SDS011;16104;48.642;9.008;2023-12-20T14:00:54;6.72;;;1.67;;
29006;SDS011;16104;48.642;9.008;2023-12-20T14:05:50;2.22;;;0.82;;
29006;SDS011;16104;48.642;9.008;2023-12-20T14:10:45;7.68;;;1.55;;
29006;SDS011;16104;48.642;9.008;2023-12-20T14:15:41;7.30;;;1.90;;
29006;SDS011;16104;48.642;9.008;2023-12-20T14:20:36;4.30;;;1.30;;
29006;SDS011;16104;48.642;9.008;2023-12-20T14:25:34;4.70;;;1.15;;
29006;SDS011;16104;48.642;9.008;2023-12-20T14:30:32;3.03;;;1.30;;
29006;SDS011;16104;48.642;9.008;2023-12-20T14:35:27;2.83;;;1.10;;
29006;SDS011;16104;48.642;9.008;2023-12-20T14:40:23;4.15;;;1.50;;
29006;SDS011;16104;48.642;9.008;2023-12-20T14:45:18;5.38;;;1.50;;
29006;SDS011;16104;48.642;9.008;2023-12-20T14:50:14;4.78;;;1.50;;
29006;SDS011;16104;48.642;9.008;2023-12-20T14:55:13;4.88;;;1.73;;
29006;SDS011;16104;48.642;9.008;2023-12-20T15:00:09;4.00;;;1.80;;
29006;SDS011;16104;48.642;9.008;2023-12-20T15:05:05;8.02;;;2.40;;
29006;SDS011;16104;48.642;9.008;2023-12-20T15:10:00;4.47;;;1.80;;
29006;SDS011;16104;48.642;9.008;2023-12-20T15:14:56;3.30;;;1.17;;
29006;SDS011;16104;48.642;9.008;2023-12-20T15:19:51;3.72;;;1.50;;
29006;SDS011;16104;48.642;9.008;2023-12-20T15:24:47;5.05;;;2.08;;
29006;SDS011;16104;48.642;9.008;2023-12-20T15:29:43;5.38;;;1.58;;
29006;SDS011;16104;48.642;9.008;2023-12-20T15:34:38;5.53;;;2.72;;
29006;SDS011;16104;48.642;9.008;2023-12-20T15:39:34;6.28;;;2.20;;
29006;SDS011;16104;48.642;9.008;2023-12-20T15:44:29;7.15;;;2.08;;
29006;SDS011;16104;48.642;9.008;2023-12-20T15:49:25;6.47;;;1.75;;
29006;SDS011;16104;48.642;9.008;2023-12-20T15:54:20;4.78;;;2.30;;
29006;SDS011;16104;48.642;9.008;2023-12-20T15:59:16;6.35;;;1.70;;
29006;SDS011;16104;48.642;9.008;2023-12-20T16:04:13;3.40;;;1.60;;
29006;SDS011;16104;48.642;9.008;2023-12-20T16:09:08;6.85;;;1.75;;
29006;SDS011;16104;48.642;9.008;2023-12-20T16:14:04;5.00;;;1.40;;
29006;SDS011;16104;48.642;9.008;2023-12-20T16:18:59;4.10;;;1.70;;
29006;SDS011;16104;48.642;9.008;2023-12-20T16:23:55;5.43;;;2.10;;
29006;SDS011;16104;48.642;9.008;2023-12-20T16:28:51;3.22;;;1.95;;
29006;SDS011;16104;48.642;9.008;2023-12-20T16:33:46;6.88;;;2.85;;
29006;SDS011;16104;48.642;9.008;2023-12-20T16:38:42;7.18;;;2.22;;
29006;SDS011;16104;48.642;9.008;2023-12-20T16:43:37;5.70;;;1.98;;
29006;SDS011;16104;48.642;9.008;2023-12-20T16:48:33;5.70;;;1.95;;
29006;SDS011;16104;48.642;9.008;2023-12-20T16:53:28;5.53;;;2.08;;
29006;SDS011;16104;48.642;9.008;2023-12-20T16:58:24;5.10;;;2.20;;
29006;SDS011;16104;48.642;9.008;2023-12-20T17:03:19;8.13;;;1.95;;
29006;SDS011;16104;48.642;9.008;2023-12-20T17:08:15;4.22;;;1.77;;
29006;SDS011;16104;48.642;9.008;2023-12-20T17:13:10;5.05;;;2.25;;
29006;SDS011;16104;48.642;9.008;2023-12-20T17:18:06;4.35;;;1.80;;
29006;SDS011;16104;48.642;9.008;2023-12-20T17:23:02;2.90;;;1.73;;
29006;SDS011;16104;48.642;9.008;2023-12-20T17:27:57;12.45;;;4.85;;
29006;SDS011;16104;48.642;9.008;2023-12-20T17:32:53;5.65;;;3.08;;
29006;SDS011;16104;48.642;9.008;2023-12-20T17:37:48;7.63;;;2.58;;
29006;SDS011;16104;48.642;9.008;2023-12-20T17:42:46;5.28;;;2.45;;
29006;SDS011;16104;48.642;9.008;2023-12-20T17:47:41;5.47;;;2.30;;
29006;SDS011;16104;48.642;9.008;2023-12-20T17:52:39;6.47;;;2.63;;
29006;SDS011;16104;48.642;9.008;2023-12-20T17:57:34;4.78;;;2.95;;
29006;SDS011;16104;48.642;9.008;2023-12-20T18:02:30;4.25;;;2.42;;
29006;SDS011;16104;48.642;9.008;2023-12-20T18:07:25;4.22;;;1.95;;
29006;SDS011;16104;48.642;9.008;2023-12-20T18:12:21;4.68;;;2.08;;
29006;SDS011;16104;48.642;9.008;2023-12-20T18:17:16;5.00;;;1.90;;
29006;SDS011;16104;48.642;9.008;2023-12-20T18:22:12;3.05;;;1.80;;
29006;SDS011;16104;48.642;9.008;2023-12-20T18:27:07;4.43;;;2.13;;
29006;SDS011;16104;48.642;9.008;2023-12-20T18:32:04;3.95;;;1.98;;
29006;SDS011;16104;48.642;9.008;2023-12-20T18:36:59;6.65;;;2.00;;
29006;SDS011;16104;48.642;9.008;2023-12-20T18:41:55;2.88;;;1.70;;
29006;SDS011;16104;48.642;9.008;2023-12-20T18:46:50;7.43;;;2.25;;
29006;SDS011;16104;48.642;9.008;2023-12-20T18:51:46;5.18;;;1.63;;
29006;SDS011;16104;48.642;9.008;2023-12-20T18:56:41;6.82;;;2.20;;
29006;SDS011;16104;48.642;9.008;2023-12-20T19:01:38;4.00;;;1.92;;
29006;SDS011;16104;48.642;9.008;2023-12-20T19:06:33;7.35;;;2.20;;
29006;SDS011;16104;48.642;9.008;2023-12-20T19:11:28;9.38;;;3.58;;
29006;SDS011;16104;48.642;9.008;2023-12-20T19:16:24;5.97;;;1.95;;
29006;SDS011;16104;48.642;9.008;2023-12-20T19:21:20;6.85;;;2.20;;
29006;SDS011;16104;48.642;9.008;2023-12-20T19:26:16;5.43;;;2.35;;
29006;SDS011;16104;48.642;9.008;2023-12-20T19:31:11;8.13;;;2.65;;
29006;SDS011;16104;48.642;9.008;2023-12-20T19:36:09;6.80;;;2.25;;
29006;SDS011;16104;48.642;9.008;2023-12-20T19:41:05;4.70;;;2.30;;
29006;SDS011;16104;48.642;9.008;2023-12-20T19:46:00;6.00;;;2.22;;
29006;SDS011;16104;48.642;9.008;2023-12-20T19:50:56;6.75;;;2.30;;
29006;SDS011;16104;48.642;9.008;2023-12-20T19:55:51;7.38;;;2.22;;
29006;SDS011;16104;48.642;9.008;2023-12-20T20:00:47;7.38;;;2.20;;
29006;SDS011;16104;48.642;9.008;2023-12-20T20:05:43;4.15;;;2.10;;
29006;SDS011;16104;48.642;9.008;2023-12-20T20:10:38;5.43;;;2.03;;
29006;SDS011;16104;48.642;9.008;2023-12-20T20:15:34;4.38;;;2.38;;
29006;SDS011;16104;48.642;9.008;2023-12-20T20:20:30;5.32;;;1.90;;
29006;SDS011;16104;48.642;9.008;2023-12-20T20:25:25;5.55;;;1.60;;
29006;SDS011;16104;48.642;9.008;2023-12-20T20:30:20;6.03;;;2.00;;
29006;SDS011;16104;48.642;9.008;2023-12-20T20:35:16;7.88;;;2.45;;
29006;SDS011;16104;48.642;9.008;2023-12-20T20:40:11;4.05;;;2.05;;
29006;SDS011;16104;48.642;9.008;2023-12-20T20:45:12;5.60;;;2.20;;
29006;SDS011;16104;48.642;9.008;2023-12-20T20:50:09;3.13;;;1.80;;
29006;SDS011;16104;48.642;9.008;2023-12-20T20:55:05;5.40;;;1.95;;
29006;SDS011;16104;48.642;9.008;2023-12-20T21:00:00;7.47;;;4.32;;
29006;SDS011;16104;48.642;9.008;2023-12-20T21:04:56;7.45;;;3.00;;
29006;SDS011;16104;48.642;9.008;2023-12-20T21:09:51;5.43;;;2.30;;
29006;SDS011;16104;48.642;9.008;2023-12-20T21:14:47;3.75;;;2.08;;
29006;SDS011;16104;48.642;9.008;2023-12-20T21:19:42;5.00;;;2.05;;
29006;SDS011;16104;48.642;9.008;2023-12-20T21:24:38;5.25;;;1.70;;
29006;SDS011;16104;48.642;9.008;2023-12-20T21:29:33;4.70;;;1.75;;
29006;SDS011;16104;48.642;9.008;2023-12-20T21:34:29;2.42;;;1.30;;
29006;SDS011;16104;48.642;9.008;2023-12-20T21:39:24;4.15;;;1.60;;
29006;SDS011;16104;48.642;9.008;2023-12-20T21:44:22;5.72;;;1.48;;
29006;SDS011;16104;48.642;9.008;2023-12-20T21:49:18;1.75;;;1.08;;
29006;SDS011;16104;48.642;9.008;2023-12-20T21:54:13;2.38;;;1.20;;
29006;SDS011;16104;48.642;9.008;2023-12-20T21:59:09;2.92;;;1.42;;
29006;SDS011;16104;48.642;9.008;2023-12-20T22:04:05;4.50;;;1.50;;
29006;SDS011;16104;48.642;9.008;2023-12-20T22:09:00;4.15;;;1.40;;
29006;SDS011;16104;48.642;9.008;2023-12-20T22:13:56;3.33;;;1.42;;
29006;SDS011;16104;48.642;9.008;2023-12-20T22:18:51;3.63;;;1.35;;
29006;SDS011;16104;48.642;9.008;2023-12-20T22:23:47;2.70;;;1.35;;
29006;SDS011;16104;48.642;9.008;2023-12-20T22:28:43;3.90;;;1.48;;
29006;SDS011;16104;48.642;9.008;2023-12-20T22:33:38;3.05;;;1.30;;
29006;SDS011;16104;48.642;9.008;2023-12-20T22:38:34;3.38;;;1.65;;
29006;SDS011;16104;48.642;9.008;2023-12-20T22:43:29;6.03;;;1.90;;
29006;SDS011;16104;48.642;9.008;2023-12-20T22:48:25;2.97;;;1.42;;
29006;SDS011;16104;48.642;9.008;2023-12-20T22:53:20;3.15;;;1.42;;
29006;SDS011;16104;48.642;9.008;2023-12-20T22:58:16;4.18;;;1.50;;
29006;SDS011;16104;48.642;9.008;2023-12-20T23:03:11;5.25;;;1.40;;
29006;SDS011;16104;48.642;9.008;2023-12-20T23:08:07;3.10;;;1.70;;
29006;SDS011;16104;48.642;9.008;2023-12-20T23:13:04;2.35;;;1.33;;
29006;SDS011;16104;48.642;9.008;2023-12-20T23:18:00;4.88;;;1.50;;
29006;SDS011;16104;48.642;9.008;2023-12-20T23:22:55;2.55;;;1.25;;
29006;SDS011;16104;48.642;9.008;2023-12-20T23:27:51;4.28;;;1.30;;
29006;SDS011;16104;48.642;9.008;2023-12-20T23:32:48;2.13;;;1.30;;
29006;SDS011;16104;48.642;9.008;2023-12-20T23:37:43;3.00;;;1.13;;
29006;SDS011;16104;48.642;9.008;2023-12-20T23:42:39;2.97;;;1.20;;
29006;SDS011;16104;48.642;9.008;2023-12-20T23:47:35;5.47;;;1.02;;
29006;SDS011;16104;48.642;9.008;2023-12-20T23:52:31;5.10;;;1.35;;
29006;SDS011;16104;48.642;9.008;2023-12-20T23:57:26;2.53;;;1.10;;
